createdAt,value
2023-03-06T00:00:50.355Z,3.20
2023-03-06T00:03:18.638Z,3.20
2023-03-06T00:05:47.954Z,3.20
2023-03-06T00:08:15.885Z,3.20
2023-03-06T00:10:43.876Z,3.20
2023-03-06T00:13:14.883Z,3.20
2023-03-06T00:15:43.023Z,3.20
2023-03-06T00:18:10.969Z,3.20
2023-03-06T00:20:40.828Z,3.20
2023-03-06T00:23:10.164Z,3.20
2023-03-06T00:25:38.792Z,3.20
2023-03-06T00:28:07.280Z,3.20
2023-03-06T00:30:35.191Z,3.20
2023-03-06T00:33:03.220Z,3.20
2023-03-06T00:35:31.611Z,3.20
2023-03-06T00:37:59.971Z,3.20
2023-03-06T00:40:29.152Z,3.10
2023-03-06T00:42:56.950Z,3.10
2023-03-06T00:45:24.729Z,3.10
2023-03-06T00:47:52.587Z,3.10
2023-03-06T00:50:20.503Z,3.10
2023-03-06T00:52:48.348Z,3.10
2023-03-06T00:55:16.197Z,3.10
2023-03-06T00:57:45.376Z,3.10
2023-03-06T01:00:14.441Z,3.20
2023-03-06T01:02:42.794Z,3.20
2023-03-06T01:05:12.909Z,3.10
2023-03-06T01:07:40.786Z,3.10
2023-03-06T01:10:09.513Z,3.10
2023-03-06T01:12:37.337Z,3.10
2023-03-06T01:15:08.125Z,3.00
2023-03-06T01:17:35.960Z,3.00
2023-03-06T01:20:04.670Z,2.90
2023-03-06T01:22:32.523Z,2.90
2023-03-06T01:25:00.634Z,2.90
2023-03-06T01:27:28.489Z,2.80
2023-03-06T01:29:56.463Z,2.70
2023-03-06T01:32:25.754Z,2.60
2023-03-06T01:34:53.728Z,2.60
2023-03-06T01:37:21.541Z,2.50
2023-03-06T01:39:50.365Z,2.40
2023-03-06T01:42:18.231Z,2.40
2023-03-06T01:45:00.673Z,2.30
2023-03-06T01:47:30.042Z,2.20
2023-03-06T01:50:01.176Z,2.20
2023-03-06T01:52:32.865Z,2.10
2023-03-06T01:55:03.394Z,2.00
2023-03-06T01:57:34.522Z,2.00
2023-03-06T02:00:06.522Z,1.90
2023-03-06T02:02:44.865Z,1.80
2023-03-06T02:05:13.040Z,1.70
2023-03-06T02:07:42.318Z,1.70
2023-03-06T02:10:11.054Z,1.50
2023-03-06T02:12:43.700Z,1.50
2023-03-06T02:15:12.780Z,1.40
2023-03-06T02:17:42.693Z,1.30
2023-03-06T02:20:16.946Z,1.20
2023-03-06T02:22:50.527Z,1.20
2023-03-06T02:25:34.221Z,1.20
2023-03-06T02:28:02.487Z,1.10
2023-03-06T02:30:31.834Z,1.00
2023-03-06T02:33:01.285Z,0.90
2023-03-06T02:35:30.644Z,0.90
2023-03-06T02:37:59.837Z,0.90
2023-03-06T02:40:29.129Z,0.80
2023-03-06T02:42:58.705Z,0.70
2023-03-06T02:45:33.176Z,0.70
2023-03-06T02:48:01.110Z,0.70
2023-03-06T02:50:30.411Z,0.70
2023-03-06T02:52:58.318Z,0.70
2023-03-06T02:55:26.341Z,0.70
2023-03-06T02:57:57.376Z,0.80
2023-03-06T03:00:26.254Z,0.80
2023-03-06T03:02:54.885Z,0.80
2023-03-06T03:05:23.041Z,0.80
2023-03-06T03:07:58.150Z,0.90
2023-03-06T03:10:26.418Z,0.90
2023-03-06T03:12:54.409Z,1.00
2023-03-06T03:15:23.723Z,1.00
2023-03-06T03:17:51.588Z,1.10
2023-03-06T03:20:21.558Z,1.10
2023-03-06T03:22:50.110Z,1.10
2023-03-06T03:25:18.186Z,1.10
2023-03-06T03:27:46.592Z,1.10
2023-03-06T03:30:14.969Z,1.00
2023-03-06T03:32:44.702Z,1.00
2023-03-06T03:35:13.391Z,1.00
2023-03-06T03:37:42.378Z,1.00
2023-03-06T03:40:11.672Z,1.10
2023-03-06T03:42:39.493Z,1.10
2023-03-06T03:45:09.367Z,1.10
2023-03-06T03:47:37.161Z,1.10
2023-03-06T03:50:07.435Z,1.20
2023-03-06T03:52:36.321Z,1.20
2023-03-06T03:55:04.162Z,1.20
2023-03-06T03:57:32.525Z,1.20
2023-03-06T04:00:00.941Z,1.20
2023-03-06T04:02:53.121Z,1.30
2023-03-06T04:05:29.710Z,1.30
2023-03-06T04:07:58.454Z,1.20
2023-03-06T04:10:26.312Z,1.10
2023-03-06T04:12:54.109Z,1.10
2023-03-06T04:15:22.157Z,1.10
2023-03-06T04:17:50.230Z,1.10
2023-03-06T04:20:21.985Z,1.10
2023-03-06T04:22:52.023Z,1.20
2023-03-06T04:25:20.015Z,1.20
2023-03-06T04:27:47.841Z,1.20
2023-03-06T04:30:16.102Z,1.20
2023-03-06T04:32:43.962Z,1.30
2023-03-06T04:35:12.163Z,1.30
2023-03-06T04:37:49.827Z,1.30
2023-03-06T04:40:24.786Z,1.30
2023-03-06T04:42:52.642Z,1.40
2023-03-06T04:45:21.093Z,1.40
2023-03-06T04:47:49.232Z,1.40
2023-03-06T04:50:17.779Z,1.40
2023-03-06T04:52:45.943Z,1.40
2023-03-06T04:55:16.353Z,1.40
2023-03-06T04:57:47.457Z,1.40
2023-03-06T05:00:17.942Z,1.40
2023-03-06T05:02:46.173Z,1.40
2023-03-06T05:05:14.647Z,1.40
2023-03-06T05:07:43.014Z,1.40
2023-03-06T05:10:15.179Z,1.40
2023-03-06T05:12:45.661Z,1.50
2023-03-06T05:15:14.596Z,1.50
2023-03-06T05:17:42.415Z,1.50
2023-03-06T05:20:13.728Z,1.60
2023-03-06T05:22:41.874Z,1.60
2023-03-06T05:25:11.130Z,1.70
2023-03-06T05:27:39.386Z,1.70
2023-03-06T05:30:11.282Z,1.70
2023-03-06T05:32:39.201Z,1.70
2023-03-06T05:35:08.348Z,1.70
2023-03-06T05:37:36.271Z,1.70
2023-03-06T05:40:09.492Z,1.70
2023-03-06T05:42:37.314Z,1.60
2023-03-06T05:45:05.991Z,1.60
2023-03-06T05:47:35.092Z,1.60
2023-03-06T05:50:02.977Z,1.60
2023-03-06T05:52:30.800Z,1.60
2023-03-06T05:54:58.683Z,1.60
2023-03-06T05:57:26.520Z,1.60
2023-03-06T05:59:54.452Z,1.70
2023-03-06T06:02:22.423Z,1.70
2023-03-06T06:04:51.653Z,1.70
2023-03-06T06:07:19.422Z,1.70
2023-03-06T06:09:47.303Z,1.80
2023-03-06T06:12:15.182Z,1.80
2023-03-06T06:14:42.982Z,1.80
2023-03-06T06:17:12.516Z,1.80
2023-03-06T06:19:40.482Z,1.80
2023-03-06T06:22:09.833Z,1.80
2023-03-06T06:24:38.047Z,1.80
2023-03-06T06:27:07.158Z,1.80
2023-03-06T06:29:35.548Z,1.80
2023-03-06T06:32:03.395Z,1.80
2023-03-06T06:34:31.966Z,1.90
2023-03-06T06:36:59.815Z,1.90
2023-03-06T06:39:29.751Z,1.90
2023-03-06T06:42:16.070Z,1.90
2023-03-06T06:44:45.591Z,2.00
2023-03-06T06:47:28.914Z,2.00
2023-03-06T06:49:57.357Z,2.10
2023-03-06T06:52:26.035Z,2.10
2023-03-06T06:54:55.395Z,2.20
2023-03-06T06:57:23.320Z,2.20
2023-03-06T06:59:53.327Z,2.20
2023-03-06T07:02:23.712Z,2.30
2023-03-06T07:05:06.030Z,2.30
2023-03-06T07:07:36.629Z,2.40
2023-03-06T07:10:08.579Z,2.40
2023-03-06T07:12:37.659Z,2.50
2023-03-06T07:15:07.075Z,2.60
2023-03-06T07:17:34.933Z,2.60
2023-03-06T07:20:03.932Z,2.70
2023-03-06T07:22:41.437Z,2.80
2023-03-06T07:25:17.958Z,2.80
2023-03-06T07:27:52.802Z,2.90
2023-03-06T07:30:22.125Z,3.00
2023-03-06T07:32:52.786Z,3.10
2023-03-06T07:35:21.083Z,3.20
2023-03-06T07:37:49.093Z,3.30
2023-03-06T07:40:19.636Z,3.50
2023-03-06T07:42:48.147Z,3.70
2023-03-06T07:45:19.742Z,3.80
2023-03-06T07:47:47.599Z,3.90
2023-03-06T07:50:15.436Z,4.10
2023-03-06T07:52:43.264Z,4.20
2023-03-06T07:55:12.341Z,4.30
2023-03-06T07:57:41.868Z,4.50
2023-03-06T08:00:14.052Z,4.60
2023-03-06T08:02:44.133Z,4.70
2023-03-06T08:05:14.958Z,4.90
2023-03-06T08:07:43.106Z,5.00
2023-03-06T08:10:14.495Z,5.20
2023-03-06T08:12:43.641Z,5.20
2023-03-06T08:15:12.806Z,5.30
2023-03-06T08:17:40.819Z,5.40
2023-03-06T08:20:10.670Z,5.40
2023-03-06T08:22:39.067Z,5.50
2023-03-06T08:25:08.369Z,5.50
2023-03-06T08:27:36.845Z,5.60
2023-03-06T08:30:07.283Z,5.70
2023-03-06T08:32:36.820Z,5.80
2023-03-06T08:35:04.962Z,5.90
2023-03-06T08:37:32.970Z,6.10
2023-03-06T08:40:02.607Z,6.20
2023-03-06T08:42:30.380Z,6.20
2023-03-06T08:44:58.243Z,6.10
2023-03-06T08:47:30.778Z,6.00
2023-03-06T08:50:00.581Z,5.90
2023-03-06T08:52:28.778Z,5.70
2023-03-06T08:54:58.000Z,5.50
2023-03-06T08:57:25.870Z,5.40
2023-03-06T08:59:53.689Z,5.40
2023-03-06T09:02:21.551Z,5.40
2023-03-06T09:04:50.747Z,5.40
2023-03-06T09:07:18.589Z,5.30
2023-03-06T09:09:46.402Z,5.30
2023-03-06T09:12:14.257Z,5.30
2023-03-06T09:14:42.288Z,5.30
2023-03-06T09:17:10.178Z,5.30
2023-03-06T09:19:38.527Z,5.20
2023-03-06T09:22:07.910Z,5.20
2023-03-06T09:24:36.133Z,5.20
2023-03-06T09:27:04.113Z,5.20
2023-03-06T09:29:31.916Z,5.20
2023-03-06T09:32:00.194Z,5.20
2023-03-06T09:34:28.418Z,5.10
2023-03-06T09:36:57.669Z,5.00
2023-03-06T09:39:27.686Z,5.00
2023-03-06T09:41:57.859Z,5.00
2023-03-06T09:44:28.572Z,5.10
2023-03-06T09:47:11.609Z,5.10
2023-03-06T09:49:50.796Z,5.20
2023-03-06T09:52:35.352Z,5.30
2023-03-06T09:55:12.946Z,5.40
2023-03-06T09:57:46.122Z,5.50
2023-03-06T10:00:17.407Z,5.50
2023-03-06T10:02:49.017Z,5.50
2023-03-06T10:05:21.232Z,5.60
2023-03-06T10:07:55.244Z,5.60
2023-03-06T10:10:28.376Z,5.60
2023-03-06T10:13:03.085Z,5.50
2023-03-06T10:15:35.968Z,5.50
2023-03-06T10:18:04.894Z,5.50
2023-03-06T10:20:38.727Z,5.50
2023-03-06T10:23:31.969Z,5.50
2023-03-06T10:26:04.244Z,5.60
2023-03-06T10:28:36.323Z,5.80
2023-03-06T10:31:10.598Z,6.00
2023-03-06T10:33:53.780Z,6.30
2023-03-06T10:36:23.572Z,6.60
2023-03-06T10:38:51.440Z,6.80
2023-03-06T10:41:25.903Z,7.10
2023-03-06T10:44:20.342Z,7.30
2023-03-06T10:46:53.948Z,7.40
2023-03-06T10:49:31.582Z,7.50
2023-03-06T10:52:02.716Z,7.60
2023-03-06T10:54:32.461Z,7.80
2023-03-06T10:57:19.384Z,7.80
2023-03-06T10:59:53.577Z,7.80
2023-03-06T11:02:32.118Z,7.70
2023-03-06T11:05:03.609Z,7.50
2023-03-06T11:07:33.356Z,7.40
2023-03-06T11:10:08.599Z,7.30
2023-03-06T11:12:37.911Z,7.40
2023-03-06T11:15:22.088Z,7.50
2023-03-06T11:17:56.164Z,7.70
2023-03-06T11:20:27.786Z,7.90
2023-03-06T11:23:00.105Z,8.00
2023-03-06T11:25:34.649Z,8.00
2023-03-06T11:28:08.209Z,7.80
2023-03-06T11:30:43.086Z,7.70
2023-03-06T11:33:21.231Z,7.40
2023-03-06T11:35:55.122Z,7.20
2023-03-06T11:38:30.842Z,7.10
2023-03-06T11:41:02.313Z,7.10
2023-03-06T11:43:37.622Z,7.10
2023-03-06T11:46:08.202Z,7.00
2023-03-06T11:48:40.111Z,6.90
2023-03-06T11:51:15.175Z,7.00
2023-03-06T11:53:43.011Z,7.00
2023-03-06T11:56:29.944Z,7.10
2023-03-06T11:59:27.805Z,7.20
2023-03-06T12:02:01.063Z,7.40
2023-03-06T12:04:53.292Z,7.60
2023-03-06T12:07:26.973Z,7.70
2023-03-06T12:10:05.973Z,8.00
2023-03-06T12:13:02.877Z,7.90
2023-03-06T12:15:52.437Z,7.80
2023-03-06T12:18:35.929Z,7.90
2023-03-06T12:21:08.156Z,7.90
2023-03-06T12:23:56.645Z,8.00
2023-03-06T12:26:52.063Z,8.10
2023-03-06T12:29:31.597Z,8.30
2023-03-06T12:32:14.648Z,8.40
2023-03-06T12:35:01.004Z,8.50
2023-03-06T12:37:44.213Z,8.60
2023-03-06T12:40:35.891Z,8.60
2023-03-06T12:43:21.747Z,8.70
2023-03-06T12:45:52.655Z,8.90
2023-03-06T12:48:26.519Z,9.00
2023-03-06T12:50:54.955Z,9.10
2023-03-06T12:53:27.313Z,9.10
2023-03-06T12:55:56.658Z,9.20
2023-03-06T12:58:52.601Z,9.20
2023-03-06T13:01:48.853Z,9.10
2023-03-06T13:04:41.057Z,8.90
2023-03-06T13:07:26.246Z,8.60
2023-03-06T13:10:05.752Z,8.30
2023-03-06T13:12:50.438Z,7.80
2023-03-06T13:15:38.163Z,7.40
2023-03-06T13:18:39.608Z,7.20
2023-03-06T13:22:09.405Z,6.80
2023-03-06T13:24:38.625Z,6.30
2023-03-06T13:27:11.856Z,5.90
2023-03-06T13:29:50.800Z,5.70
2023-03-06T13:32:29.057Z,5.60
2023-03-06T13:34:56.946Z,5.60
2023-03-06T13:37:50.174Z,5.40
2023-03-06T13:40:30.835Z,5.30
2023-03-06T13:43:22.430Z,5.20
2023-03-06T13:45:51.661Z,5.30
2023-03-06T13:48:46.067Z,5.30
2023-03-06T13:51:25.005Z,5.50
2023-03-06T13:54:21.145Z,5.70
2023-03-06T13:57:12.608Z,5.70
2023-03-06T14:00:11.605Z,5.70
2023-03-06T14:02:59.735Z,5.70
2023-03-06T14:05:41.935Z,5.70
2023-03-06T14:08:15.664Z,5.60
2023-03-06T14:10:47.102Z,5.60
2023-03-06T14:13:19.388Z,5.50
2023-03-06T14:15:49.462Z,5.50
2023-03-06T14:18:21.786Z,5.40
2023-03-06T14:20:55.531Z,5.30
2023-03-06T14:23:27.411Z,5.40
2023-03-06T14:26:06.311Z,5.30
2023-03-06T14:28:36.069Z,5.30
2023-03-06T14:31:06.835Z,5.40
2023-03-06T14:33:42.849Z,5.30
2023-03-06T14:36:15.240Z,5.40
2023-03-06T14:38:47.245Z,5.50
2023-03-06T14:41:25.001Z,5.60
2023-03-06T14:43:53.179Z,5.70
2023-03-06T14:46:23.186Z,5.80
2023-03-06T14:48:51.376Z,5.90
2023-03-06T14:51:21.697Z,6.00
2023-03-06T14:53:53.131Z,6.10
2023-03-06T14:56:24.078Z,6.10
2023-03-06T14:58:56.848Z,6.20
2023-03-06T15:01:31.138Z,6.30
2023-03-06T15:04:01.200Z,6.30
2023-03-06T15:06:34.375Z,6.30
2023-03-06T15:09:07.616Z,6.20
2023-03-06T15:11:59.746Z,6.20
2023-03-06T15:14:37.033Z,6.20
2023-03-06T15:17:24.038Z,6.20
2023-03-06T15:19:55.207Z,6.20
2023-03-06T15:22:29.914Z,6.10
2023-03-06T15:25:24.026Z,6.00
2023-03-06T15:27:55.165Z,6.00
2023-03-06T15:30:26.604Z,5.90
2023-03-06T15:33:10.516Z,5.90
2023-03-06T15:35:39.442Z,5.90
2023-03-06T15:38:25.760Z,5.90
2023-03-06T15:40:58.570Z,5.90
2023-03-06T15:43:29.721Z,5.90
2023-03-06T15:46:00.471Z,5.80
2023-03-06T15:48:29.161Z,5.80
2023-03-06T15:50:57.142Z,5.70
2023-03-06T15:53:25.100Z,5.60
2023-03-06T15:55:54.032Z,5.30
2023-03-06T15:58:24.829Z,5.20
2023-03-06T16:00:54.166Z,5.10
2023-03-06T16:03:21.999Z,5.10
2023-03-06T16:05:49.943Z,5.00
2023-03-06T16:08:17.879Z,4.90
2023-03-06T16:10:46.804Z,4.80
2023-03-06T16:13:21.869Z,4.70
2023-03-06T16:15:51.353Z,4.70
2023-03-06T16:18:20.496Z,4.70
2023-03-06T16:20:50.171Z,4.60
2023-03-06T16:23:17.965Z,4.60
2023-03-06T16:25:49.466Z,4.60
2023-03-06T16:28:17.859Z,4.60
2023-03-06T16:30:46.209Z,4.60
2023-03-06T16:33:15.242Z,4.60
2023-03-06T16:35:46.699Z,4.60
2023-03-06T16:38:15.682Z,4.60
2023-03-06T16:40:44.002Z,4.60
2023-03-06T16:43:13.427Z,4.60
2023-03-06T16:45:43.131Z,4.60
2023-03-06T16:48:16.949Z,4.50
2023-03-06T16:50:46.331Z,4.50
2023-03-06T16:53:15.308Z,4.50
2023-03-06T16:55:43.171Z,4.50
2023-03-06T16:58:10.934Z,4.40
2023-03-06T17:00:38.952Z,4.40
2023-03-06T17:03:07.761Z,4.30
2023-03-06T17:05:37.043Z,4.30
2023-03-06T17:08:06.863Z,4.20
2023-03-06T17:10:34.726Z,4.10
2023-03-06T17:13:02.712Z,4.10
2023-03-06T17:15:30.563Z,4.00
2023-03-06T17:17:59.244Z,4.00
2023-03-06T17:20:27.146Z,4.00
2023-03-06T17:22:55.186Z,3.90
2023-03-06T17:25:24.642Z,3.80
2023-03-06T17:27:52.613Z,3.70
2023-03-06T17:30:20.451Z,3.60
2023-03-06T17:32:48.284Z,3.50
2023-03-06T17:35:16.086Z,3.50
2023-03-06T17:37:43.858Z,3.50
2023-03-06T17:40:12.507Z,3.50
2023-03-06T17:42:41.704Z,3.50
2023-03-06T17:45:11.088Z,3.50
2023-03-06T17:47:38.912Z,3.60
2023-03-06T17:50:07.274Z,3.60
2023-03-06T17:52:35.070Z,3.60
2023-03-06T17:55:02.929Z,3.60
2023-03-06T17:57:30.713Z,3.60
2023-03-06T17:59:59.891Z,3.70
2023-03-06T18:02:27.717Z,3.70
2023-03-06T18:04:57.537Z,3.70
2023-03-06T18:07:26.578Z,3.80
2023-03-06T18:09:54.449Z,3.80
2023-03-06T18:12:22.244Z,3.80
2023-03-06T18:14:50.655Z,3.80
2023-03-06T18:17:19.977Z,3.80
2023-03-06T18:19:47.792Z,3.80
2023-03-06T18:22:15.694Z,3.70
2023-03-06T18:24:43.484Z,3.60
2023-03-06T18:27:11.340Z,3.60
2023-03-06T18:29:39.154Z,3.50
2023-03-06T18:32:09.137Z,3.50
2023-03-06T18:34:38.734Z,3.40
2023-03-06T18:37:06.797Z,3.50
2023-03-06T18:39:34.662Z,3.40
2023-03-06T18:42:03.092Z,3.40
2023-03-06T18:44:30.977Z,3.40
2023-03-06T18:46:58.852Z,3.30
2023-03-06T18:49:26.700Z,3.20
2023-03-06T18:51:56.020Z,3.20
2023-03-06T18:54:25.344Z,3.30
2023-03-06T18:56:53.154Z,3.30
2023-03-06T18:59:21.181Z,3.30
2023-03-06T19:01:49.255Z,3.30
2023-03-06T19:04:17.110Z,3.30
2023-03-06T19:06:44.982Z,3.30
2023-03-06T19:09:14.254Z,3.40
2023-03-06T19:11:42.803Z,3.40
2023-03-06T19:14:10.898Z,3.50
2023-03-06T19:16:38.886Z,3.50
2023-03-06T19:19:06.849Z,3.50
2023-03-06T19:21:34.702Z,3.50
2023-03-06T19:24:03.579Z,3.60
2023-03-06T19:26:32.720Z,3.60
2023-03-06T19:29:00.501Z,3.60
2023-03-06T19:31:29.365Z,3.60
2023-03-06T19:33:58.210Z,3.60
2023-03-06T19:36:33.491Z,3.50
2023-03-06T19:39:03.536Z,3.50
2023-03-06T19:41:32.800Z,3.50
2023-03-06T19:44:02.610Z,3.40
2023-03-06T19:46:31.690Z,3.30
2023-03-06T19:49:01.407Z,3.30
2023-03-06T19:51:29.647Z,3.30
2023-03-06T19:53:58.336Z,3.20
2023-03-06T19:56:28.982Z,3.20
2023-03-06T19:58:58.797Z,3.20
2023-03-06T20:01:28.094Z,3.20
2023-03-06T20:03:58.691Z,3.20
2023-03-06T20:06:28.458Z,3.20
2023-03-06T20:08:56.630Z,3.10
2023-03-06T20:11:26.759Z,3.20
2023-03-06T20:13:54.638Z,3.20
2023-03-06T20:16:23.761Z,3.20
2023-03-06T20:18:51.757Z,3.20
2023-03-06T20:21:21.440Z,3.20
2023-03-06T20:23:51.049Z,3.20
2023-03-06T20:26:19.915Z,3.20
2023-03-06T20:28:47.781Z,3.20
2023-03-06T20:31:17.923Z,3.20
2023-03-06T20:33:48.816Z,3.20
2023-03-06T20:36:19.172Z,3.20
2023-03-06T20:38:47.758Z,3.10
2023-03-06T20:41:17.205Z,3.10
2023-03-06T20:43:45.403Z,3.10
2023-03-06T20:46:13.858Z,3.10
2023-03-06T20:48:42.462Z,3.10
2023-03-06T20:51:21.589Z,3.20
2023-03-06T20:53:51.228Z,3.20
2023-03-06T20:56:21.140Z,3.30
2023-03-06T20:58:49.032Z,3.30
2023-03-06T21:01:21.417Z,3.30
2023-03-06T21:03:49.561Z,3.20
2023-03-06T21:06:19.586Z,3.20
2023-03-06T21:08:47.994Z,3.10
2023-03-06T21:11:16.365Z,3.10
2023-03-06T21:13:44.385Z,3.10
2023-03-06T21:16:14.523Z,3.10
2023-03-06T21:18:42.860Z,3.00
2023-03-06T21:21:12.713Z,3.00
2023-03-06T21:23:42.075Z,3.00
2023-03-06T21:26:13.528Z,2.90
2023-03-06T21:28:41.721Z,2.90
2023-03-06T21:31:11.439Z,2.90
2023-03-06T21:33:39.853Z,2.80
2023-03-06T21:36:08.734Z,2.80
2023-03-06T21:38:36.703Z,2.80
2023-03-06T21:41:10.765Z,2.70
2023-03-06T21:43:38.656Z,2.60
2023-03-06T21:46:06.756Z,2.60
2023-03-06T21:48:35.303Z,2.50
2023-03-06T21:51:11.818Z,2.50
2023-03-06T21:53:43.044Z,2.40
2023-03-06T21:56:13.365Z,2.40
2023-03-06T21:58:41.398Z,2.30
2023-03-06T22:01:10.486Z,2.30
2023-03-06T22:03:38.606Z,2.30
2023-03-06T22:06:11.070Z,2.30
2023-03-06T22:08:39.246Z,2.20
2023-03-06T22:11:09.488Z,2.30
2023-03-06T22:13:39.257Z,2.30
2023-03-06T22:16:08.098Z,2.30
2023-03-06T22:18:36.599Z,2.40
2023-03-06T22:21:08.458Z,2.40
2023-03-06T22:23:36.823Z,2.40
2023-03-06T22:26:05.480Z,2.40
2023-03-06T22:28:33.440Z,2.50
2023-03-06T22:31:07.638Z,2.50
2023-03-06T22:33:35.515Z,2.40
2023-03-06T22:36:06.067Z,2.40
2023-03-06T22:38:34.120Z,2.40
2023-03-06T22:41:02.236Z,2.40
2023-03-06T22:43:30.253Z,2.40
2023-03-06T22:46:02.077Z,2.30
2023-03-06T22:48:31.725Z,2.30
2023-03-06T22:51:04.367Z,2.40
2023-03-06T22:53:32.810Z,2.40
2023-03-06T22:56:01.171Z,2.40
2023-03-06T22:58:34.220Z,2.40
2023-03-06T23:01:05.940Z,2.40
2023-03-06T23:03:36.536Z,2.50
2023-03-06T23:06:07.821Z,2.50
2023-03-06T23:08:35.873Z,2.50
2023-03-06T23:11:03.927Z,2.60
2023-03-06T23:13:50.509Z,2.70
2023-03-06T23:16:37.805Z,2.70
2023-03-06T23:19:26.670Z,2.70
2023-03-06T23:22:14.322Z,2.80
2023-03-06T23:25:00.879Z,2.80
2023-03-06T23:27:29.411Z,2.90
2023-03-06T23:29:58.892Z,2.90
2023-03-06T23:32:27.043Z,2.90
2023-03-06T23:34:56.264Z,2.90
2023-03-06T23:37:24.095Z,2.90
2023-03-06T23:39:52.579Z,2.90
2023-03-06T23:42:20.439Z,3.00
2023-03-06T23:44:48.327Z,2.90
2023-03-06T23:47:17.173Z,2.90
2023-03-06T23:49:45.044Z,2.90
2023-03-06T23:52:14.252Z,2.90
2023-03-06T23:54:42.171Z,2.90
2023-03-06T23:57:10.174Z,2.90
2023-03-06T23:59:38.260Z,2.90
